Climatologie pour Saint-Brevin les Pins
Jour • Résumé pour février 12, 2017 Système :  Métrique    Anglais   Mixte
« - 1 jour
+ 1 jour »
Jour Semaine Mois Année Personnalisé
  Maximum : Minimum : Moyenne :
Température sous abri : 8.9 °C -0.5 °C 3.1 °C
Point de rosée : 6.7 °C -1.6 °C 1.5 °C
Humidité : 96 % 84 % 90 %
Vitesse du vent : 30.6 km/h 0.0 km/h 12.5 km/h
Rafale : 45.1 km/h - -
Direction :- - East
Pression : 1017.2 hPa 1008.0 hPa -
Précipitations : 0.8 mm    
Historical Graphs
 
 
Tableau de données pour février 12, 2017
Heure Tempé Pt rosée Pression Vent Vitesse Rafale Humidité Taux pluie (/hr) Soleil
00:00 0.7 °C -0.3 °C 1017.2 hPa ENE 3.2 km/h 6.4 km/h 93 % 0.0 mm 0 W/m2
00:10 0.6 °C -0.4 °C 1017.2 hPa ENE 1.6 km/h 8.0 km/h 93 % 0.0 mm 0 W/m2
00:20 0.5 °C -0.5 °C 1016.8 hPa ENE 3.2 km/h 8.0 km/h 93 % 0.0 mm 0 W/m2
00:25 0.4 °C -0.6 °C 1016.8 hPa East 4.8 km/h 8.0 km/h 93 % 0.0 mm 0 W/m2
00:30 0.4 °C -0.5 °C 1016.8 hPa East 1.6 km/h 8.0 km/h 94 % 0.0 mm 0 W/m2
00:40 0.2 °C -0.6 °C 1016.8 hPa East 3.2 km/h 9.7 km/h 94 % 0.0 mm 0 W/m2
00:50 0.1 °C -0.8 °C 1016.8 hPa East 1.6 km/h 6.4 km/h 94 % 0.0 mm 0 W/m2
00:55 0.2 °C -0.7 °C 1016.8 hPa ENE 4.8 km/h 6.4 km/h 94 % 0.0 mm 0 W/m2
01:00 0.1 °C -0.7 °C 1016.8 hPa ENE 1.6 km/h 8.0 km/h 94 % 0.0 mm 0 W/m2
01:10 0.3 °C -0.4 °C 1016.8 hPa East 1.6 km/h 8.0 km/h 95 % 0.0 mm 0 W/m2
01:15 0.4 °C -0.5 °C 1016.8 hPa ENE 3.2 km/h 8.0 km/h 94 % 0.0 mm 0 W/m2
01:20 0.2 °C -0.6 °C 1016.8 hPa NE 1.6 km/h 8.0 km/h 94 % 0.0 mm 0 W/m2
01:25 0.2 °C -0.6 °C 1016.8 hPa ENE 1.6 km/h 6.4 km/h 94 % 0.0 mm 0 W/m2
01:30 0.1 °C -0.8 °C 1016.8 hPa ENE 1.6 km/h 6.4 km/h 94 % 0.0 mm 0 W/m2
01:40 -0.1 °C -0.9 °C 1016.8 hPa Calm   6.4 km/h 94 % 0.0 mm 0 W/m2
01:45 -0.1 °C -1.0 °C 1016.8 hPa ENE 3.2 km/h 8.0 km/h 94 % 0.0 mm 0 W/m2
01:55 -0.1 °C -0.8 °C 1016.8 hPa ENE 3.2 km/h 9.7 km/h 95 % 0.0 mm 0 W/m2
02:05 0.1 °C -0.8 °C 1016.8 hPa East 1.6 km/h 12.9 km/h 94 % 0.0 mm 0 W/m2
02:10 0.1 °C -0.8 °C 1016.5 hPa ENE 1.6 km/h 11.3 km/h 94 % 0.0 mm 0 W/m2
02:15 0.1 °C -0.7 °C 1016.5 hPa East 1.6 km/h 11.3 km/h 94 % 0.0 mm 0 W/m2
02:25 0.2 °C -0.7 °C 1016.8 hPa East 3.2 km/h 9.7 km/h 94 % 0.0 mm 0 W/m2
02:30 0.2 °C -0.6 °C 1016.8 hPa East 1.6 km/h 9.7 km/h 94 % 0.0 mm 0 W/m2
02:40 0.1 °C -0.8 °C 1016.8 hPa East 1.6 km/h 8.0 km/h 94 % 0.0 mm 0 W/m2
02:45 -0.1 °C -0.9 °C 1016.8 hPa East 8.0 km/h 8.0 km/h 94 % 0.0 mm 0 W/m2
02:55 -0.1 °C -1.0 °C 1016.8 hPa ENE 3.2 km/h 8.0 km/h 94 % 0.0 mm 0 W/m2
03:00 -0.2 °C -1.0 °C 1016.8 hPa ENE 1.6 km/h 6.4 km/h 94 % 0.0 mm 0 W/m2
03:10 -0.1 °C -0.8 °C 1016.8 hPa East 4.8 km/h 8.0 km/h 95 % 0.0 mm 0 W/m2
03:15 -0.1 °C -1.0 °C 1016.5 hPa East 1.6 km/h 8.0 km/h 94 % 0.0 mm 0 W/m2
03:25 -0.2 °C -1.1 °C 1016.5 hPa ENE 1.6 km/h 8.0 km/h 94 % 0.0 mm 0 W/m2
03:30 -0.4 °C -1.2 °C 1016.5 hPa East 4.8 km/h 8.0 km/h 94 % 0.0 mm 0 W/m2
03:40 -0.5 °C -1.2 °C 1016.5 hPa East 1.6 km/h 8.0 km/h 95 % 0.0 mm 0 W/m2
03:45 -0.5 °C -1.2 °C 1016.5 hPa ENE 1.6 km/h 8.0 km/h 95 % 0.0 mm 0 W/m2
03:50 -0.4 °C -1.1 °C 1016.5 hPa East 3.2 km/h 8.0 km/h 95 % 0.0 mm 0 W/m2
03:55 -0.4 °C -1.1 °C 1016.5 hPa East 1.6 km/h 8.0 km/h 95 % 0.0 mm 0 W/m2
04:00 -0.4 °C -1.1 °C 1016.5 hPa ENE 3.2 km/h 8.0 km/h 95 % 0.0 mm 0 W/m2
04:10 -0.4 °C -1.1 °C 1016.1 hPa ENE 3.2 km/h 9.7 km/h 95 % 0.0 mm 0 W/m2
04:20 -0.3 °C -1.0 °C 1016.1 hPa ENE 4.8 km/h 11.3 km/h 95 % 0.0 mm 0 W/m2
04:25 -0.3 °C -1.0 °C 1016.1 hPa ENE 11.3 km/h 11.3 km/h 95 % 0.0 mm 0 W/m2
04:30 -0.2 °C -0.9 °C 1016.1 hPa East 8.0 km/h 12.9 km/h 95 % 0.0 mm 0 W/m2
04:40 0.0 °C -0.6 °C 1015.8 hPa East 8.0 km/h 16.1 km/h 96 % 0.0 mm 0 W/m2
04:50 0.2 °C -0.5 °C 1015.8 hPa ENE 12.9 km/h 16.1 km/h 95 % 0.0 mm 0 W/m2
04:55 0.2 °C -0.5 °C 1015.8 hPa ENE 11.3 km/h 16.1 km/h 95 % 0.0 mm 0 W/m2
05:00 0.3 °C -0.4 °C 1015.8 hPa ENE 8.0 km/h 16.1 km/h 95 % 0.0 mm 0 W/m2
05:05 0.4 °C -0.3 °C 1015.8 hPa East 3.2 km/h 14.5 km/h 95 % 0.0 mm 0 W/m2
05:10 0.6 °C -0.2 °C 1015.8 hPa East 9.7 km/h 20.9 km/h 95 % 0.0 mm 0 W/m2
05:15 0.7 °C 0.0 °C 1015.5 hPa East 12.9 km/h 20.9 km/h 95 % 0.0 mm 0 W/m2
05:20 0.7 °C 0.0 °C 1015.5 hPa ENE 8.0 km/h 24.1 km/h 95 % 0.0 mm 0 W/m2
05:25 0.8 °C -0.1 °C 1015.5 hPa East 16.1 km/h 24.1 km/h 94 % 0.0 mm 0 W/m2
05:30 0.8 °C 0.0 °C 1015.5 hPa NE 11.3 km/h 29.0 km/h 94 % 0.0 mm 0 W/m2
05:40 0.8 °C -0.2 °C 1015.5 hPa East 9.7 km/h 27.4 km/h 93 % 0.0 mm 0 W/m2
05:45 0.8 °C -0.3 °C 1015.5 hPa East 8.0 km/h 25.7 km/h 92 % 0.0 mm 0 W/m2
05:55 0.8 °C -0.5 °C 1015.5 hPa East 17.7 km/h 22.5 km/h 91 % 0.0 mm 0 W/m2
06:00 0.8 °C -0.5 °C 1015.5 hPa East 12.9 km/h 22.5 km/h 91 % 0.0 mm 0 W/m2
06:10 0.8 °C -0.7 °C 1015.5 hPa ENE 16.1 km/h 25.7 km/h 90 % 0.0 mm 0 W/m2
06:15 0.7 °C -0.9 °C 1015.5 hPa East 12.9 km/h 24.1 km/h 89 % 0.0 mm 0 W/m2
06:20 0.7 °C -0.9 °C 1015.5 hPa ENE 17.7 km/h 24.1 km/h 89 % 0.0 mm 0 W/m2
06:30 0.7 °C -1.0 °C 1015.1 hPa ENE 17.7 km/h 25.7 km/h 88 % 0.0 mm 0 W/m2
06:40 0.7 °C -1.0 °C 1015.1 hPa ENE 8.0 km/h 25.7 km/h 88 % 0.0 mm 0 W/m2
06:45 0.8 °C -1.0 °C 1014.8 hPa East 14.5 km/h 29.0 km/h 88 % 0.0 mm 0 W/m2
06:50 0.8 °C -1.0 °C 1014.8 hPa East 12.9 km/h 29.0 km/h 88 % 0.0 mm 0 W/m2
06:55 0.8 °C -1.1 °C 1014.8 hPa ENE 25.7 km/h 30.6 km/h 87 % 0.0 mm 0 W/m2
07:05 0.8 °C -1.1 °C 1014.8 hPa East 14.5 km/h 27.4 km/h 87 % 0.0 mm 0 W/m2
07:10 0.8 °C -1.1 °C 1014.8 hPa East 8.0 km/h 25.7 km/h 87 % 0.0 mm 0 W/m2
07:20 0.8 °C -1.2 °C 1014.8 hPa NE 4.8 km/h 29.0 km/h 86 % 0.0 mm 0 W/m2
07:25 0.8 °C -1.2 °C 1014.8 hPa NE 16.1 km/h 27.4 km/h 86 % 0.0 mm 0 W/m2
07:30 0.8 °C -1.3 °C 1014.8 hPa East 11.3 km/h 27.4 km/h 86 % 0.0 mm 0 W/m2
07:40 0.7 °C -1.4 °C 1014.8 hPa East 14.5 km/h 35.4 km/h 86 % 0.3 mm 0 W/m2
07:50 0.7 °C -1.4 °C 1014.8 hPa East 6.4 km/h 32.2 km/h 86 % 0.3 mm 0 W/m2
08:05 0.6 °C -1.5 °C 1014.8 hPa East 16.1 km/h 35.4 km/h 86 % 0.3 mm 0 W/m2
08:10 0.5 °C -1.6 °C 1014.8 hPa East 17.7 km/h 35.4 km/h 86 % 0.3 mm 0 W/m2
08:20 0.5 °C -1.6 °C 1014.8 hPa East 25.7 km/h 27.4 km/h 86 % 0.3 mm 0 W/m2
08:25 0.6 °C -1.5 °C 1014.8 hPa NE 19.3 km/h 30.6 km/h 86 % 0.3 mm 0 W/m2
08:30 0.6 °C -1.5 °C 1014.4 hPa East 20.9 km/h 33.8 km/h 86 % 0.3 mm 5 W/m2
08:40 0.6 °C -1.5 °C 1014.8 hPa East 25.7 km/h 35.4 km/h 86 % 0.0 mm 11 W/m2
08:45 0.6 °C -1.5 °C 1014.8 hPa East 27.4 km/h 30.6 km/h 86 % 0.0 mm 14 W/m2
08:55 0.7 °C -1.4 °C 1014.8 hPa ESE 14.5 km/h 35.4 km/h 86 % 0.0 mm 21 W/m2
09:00 0.7 °C -1.4 °C 1014.8 hPa East 16.1 km/h 35.4 km/h 86 % 0.0 mm 26 W/m2
09:10 0.8 °C -1.2 °C 1014.4 hPa East 11.3 km/h 29.0 km/h 86 % 0.0 mm 33 W/m2
09:15 0.9 °C -1.2 °C 1014.4 hPa ENE 16.1 km/h 29.0 km/h 86 % 0.0 mm 39 W/m2
09:25 0.9 °C -1.3 °C 1014.4 hPa ESE 22.5 km/h 35.4 km/h 85 % 0.0 mm 44 W/m2
09:30 1.0 °C -1.2 °C 1014.4 hPa East 22.5 km/h 37.0 km/h 85 % 0.0 mm 40 W/m2
09:40 1.1 °C -1.2 °C 1014.1 hPa East 11.3 km/h 30.6 km/h 85 % 0.0 mm 56 W/m2
09:50 1.2 °C -1.2 °C 1014.1 hPa East 16.1 km/h 38.6 km/h 84 % 0.0 mm 77 W/m2
09:55 1.2 °C -1.2 °C 1014.1 hPa ENE 25.7 km/h 43.4 km/h 84 % 0.0 mm 47 W/m2
10:00 1.3 °C -1.1 °C 1014.1 hPa East 16.1 km/h 43.4 km/h 84 % 0.0 mm 54 W/m2
10:05 1.3 °C -1.0 °C 1014.1 hPa ENE 16.1 km/h 35.4 km/h 85 % 0.0 mm 79 W/m2
10:10 1.3 °C -1.1 °C 1013.8 hPa ENE 16.1 km/h 35.4 km/h 84 % 0.0 mm 93 W/m2
10:15 1.4 °C -1.0 °C 1013.8 hPa East 14.5 km/h 37.0 km/h 84 % 0.0 mm 81 W/m2
10:25 1.5 °C -0.9 °C 1013.8 hPa East 12.9 km/h 38.6 km/h 84 % 0.0 mm 77 W/m2
10:30 1.6 °C -0.9 °C 1013.8 hPa East 25.7 km/h 41.8 km/h 84 % 0.0 mm 67 W/m2
10:40 1.7 °C -0.7 °C 1013.8 hPa NE 9.7 km/h 37.0 km/h 84 % 0.0 mm 62 W/m2
10:45 1.7 °C -0.7 °C 1013.4 hPa East 11.3 km/h 37.0 km/h 84 % 0.0 mm 81 W/m2
10:50 1.8 °C -0.6 °C 1013.4 hPa NE 12.9 km/h 41.8 km/h 84 % 0.0 mm 88 W/m2
10:55 1.8 °C -0.6 °C 1013.4 hPa East 27.4 km/h 41.8 km/h 84 % 0.0 mm 98 W/m2
11:00 1.9 °C -0.5 °C 1013.4 hPa East 12.9 km/h 35.4 km/h 84 % 0.0 mm 86 W/m2
11:10 1.9 °C -0.5 °C 1013.8 hPa East 16.1 km/h 35.4 km/h 84 % 0.0 mm 91 W/m2
11:15 2.1 °C -0.4 °C 1013.4 hPa East 24.1 km/h 37.0 km/h 84 % 0.0 mm 111 W/m2
11:20 2.1 °C -0.3 °C 1013.4 hPa SSE 12.9 km/h 37.0 km/h 84 % 0.0 mm 70 W/m2
11:25 2.1 °C -0.3 °C 1013.4 hPa East 14.5 km/h 38.6 km/h 84 % 0.0 mm 70 W/m2
11:30 2.1 °C -0.4 °C 1013.4 hPa East 17.7 km/h 38.6 km/h 84 % 0.0 mm 49 W/m2
11:40 1.9 °C -0.3 °C 1013.4 hPa East 17.7 km/h 45.1 km/h 85 % 0.0 mm 40 W/m2
11:45 1.9 °C -0.2 °C 1013.4 hPa East 22.5 km/h 35.4 km/h 86 % 0.0 mm 39 W/m2
11:50 1.9 °C -0.2 °C 1013.4 hPa East 14.5 km/h 35.4 km/h 86 % 0.0 mm 40 W/m2
12:00 1.8 °C 0.2 °C 1013.1 hPa ENE 30.6 km/h 35.4 km/h 89 % 0.0 mm 51 W/m2
12:10 1.7 °C 0.2 °C 1013.1 hPa East 24.1 km/h 33.8 km/h 90 % 0.3 mm 60 W/m2
12:15 1.7 °C 0.4 °C 1013.1 hPa ESE 25.7 km/h 38.6 km/h 91 % 0.5 mm 100 W/m2
12:25 1.9 °C 0.7 °C 1013.1 hPa ESE 16.1 km/h 30.6 km/h 92 % 0.5 mm 102 W/m2
12:35 1.8 °C 0.7 °C 1013.1 hPa ENE 22.5 km/h 37.0 km/h 92 % 0.5 mm 88 W/m2
12:40 1.8 °C 0.7 °C 1012.8 hPa ESE 12.9 km/h 37.0 km/h 92 % 0.5 mm 125 W/m2
12:45 1.9 °C 0.9 °C 1012.8 hPa East 14.5 km/h 29.0 km/h 93 % 0.5 mm 121 W/m2
12:55 2.3 °C 1.3 °C 1012.4 hPa ENE 17.7 km/h 32.2 km/h 93 % 0.5 mm 162 W/m2
13:00 2.3 °C 1.3 °C 1012.4 hPa NE 22.5 km/h 32.2 km/h 93 % 0.5 mm 151 W/m2
13:10 2.3 °C 1.3 °C 1012.1 hPa East 14.5 km/h 38.6 km/h 93 % 0.3 mm 158 W/m2
13:15 2.3 °C 1.2 °C 1012.1 hPa ESE 9.7 km/h 33.8 km/h 92 % 0.0 mm 151 W/m2
13:20 2.4 °C 1.2 °C 1012.1 hPa East 11.3 km/h 29.0 km/h 92 % 0.0 mm 149 W/m2
13:25 2.4 °C 1.2 °C 1012.1 hPa East 16.1 km/h 35.4 km/h 92 % 0.0 mm 113 W/m2
13:30 2.4 °C 1.1 °C 1012.1 hPa East 8.0 km/h 37.0 km/h 91 % 0.0 mm 107 W/m2
13:40 2.6 °C 1.3 °C 1012.1 hPa East 9.7 km/h 32.2 km/h 91 % 0.0 mm 158 W/m2
13:45 2.7 °C 1.4 °C 1012.1 hPa ENE 8.0 km/h 32.2 km/h 91 % 0.0 mm 84 W/m2
13:50 2.7 °C 1.4 °C 1011.7 hPa East 17.7 km/h 27.4 km/h 91 % 0.0 mm 84 W/m2
14:00 2.8 °C 1.5 °C 1011.7 hPa East 16.1 km/h 35.4 km/h 91 % 0.0 mm 72 W/m2
14:10 2.8 °C 1.5 °C 1011.4 hPa ENE 11.3 km/h 30.6 km/h 91 % 0.0 mm 93 W/m2
14:15 2.9 °C 1.6 °C 1011.4 hPa East 9.7 km/h 29.0 km/h 91 % 0.0 mm 83 W/m2
14:20 3.0 °C 1.7 °C 1011.4 hPa East 24.1 km/h 35.4 km/h 91 % 0.0 mm 83 W/m2
14:25 3.1 °C 1.7 °C 1011.1 hPa East 12.9 km/h 35.4 km/h 91 % 0.0 mm 111 W/m2
14:30 3.1 °C 1.6 °C 1011.1 hPa East 14.5 km/h 38.6 km/h 90 % 0.0 mm 141 W/m2
14:40 3.4 °C 2.0 °C 1011.1 hPa ENE 25.7 km/h 30.6 km/h 90 % 0.0 mm 183 W/m2
14:55 3.8 °C 2.2 °C 1010.4 hPa ENE 8.0 km/h 33.8 km/h 89 % 0.0 mm 204 W/m2
15:00 3.8 °C 2.2 °C 1010.4 hPa East 11.3 km/h 38.6 km/h 89 % 0.0 mm 200 W/m2
15:10 4.1 °C 2.5 °C 1010.7 hPa East 12.9 km/h 30.6 km/h 89 % 0.0 mm 193 W/m2
15:15 4.2 °C 2.6 °C 1010.7 hPa ENE 6.4 km/h 30.6 km/h 89 % 0.0 mm 185 W/m2
15:20 4.3 °C 2.5 °C 1010.4 hPa ENE 19.3 km/h 27.4 km/h 88 % 0.0 mm 155 W/m2
15:30 4.4 °C 2.6 °C 1010.4 hPa East 12.9 km/h 33.8 km/h 88 % 0.0 mm 149 W/m2
15:40 4.5 °C 2.7 °C 1010.4 hPa ENE 16.1 km/h 30.6 km/h 88 % 0.0 mm 118 W/m2
15:45 4.4 °C 2.6 °C 1010.4 hPa East 27.4 km/h 30.6 km/h 88 % 0.0 mm 84 W/m2
15:50 4.4 °C 2.6 °C 1010.4 hPa East 16.1 km/h 32.2 km/h 88 % 0.0 mm 104 W/m2
16:00 4.6 °C 2.7 °C 1010.4 hPa ESE 4.8 km/h 32.2 km/h 88 % 0.0 mm 84 W/m2
16:10 4.7 °C 2.8 °C 1010.0 hPa East 9.7 km/h 33.8 km/h 88 % 0.0 mm 95 W/m2
16:15 4.7 °C 2.9 °C 1010.0 hPa East 20.9 km/h 27.4 km/h 88 % 0.0 mm 102 W/m2
16:25 4.9 °C 3.1 °C 1010.0 hPa East 17.7 km/h 29.0 km/h 88 % 0.0 mm 86 W/m2
16:30 5.0 °C 3.2 °C 1010.0 hPa East 17.7 km/h 29.0 km/h 88 % 0.0 mm 84 W/m2
16:40 5.1 °C 3.1 °C 1010.0 hPa ESE 14.5 km/h 29.0 km/h 87 % 0.0 mm 54 W/m2
16:45 5.1 °C 3.3 °C 1010.0 hPa ENE 14.5 km/h 29.0 km/h 88 % 0.0 mm 44 W/m2
16:50 5.1 °C 3.2 °C 1010.0 hPa East 11.3 km/h 29.0 km/h 88 % 0.0 mm 40 W/m2
16:55 5.1 °C 3.2 °C 1010.0 hPa East 9.7 km/h 27.4 km/h 88 % 0.0 mm 39 W/m2
17:00 5.1 °C 3.2 °C 1010.0 hPa East 27.4 km/h 27.4 km/h 88 % 0.0 mm 37 W/m2
17:10 5.1 °C 3.4 °C 1010.0 hPa East 9.7 km/h 25.7 km/h 89 % 0.0 mm 33 W/m2
17:20 5.1 °C 3.6 °C 1009.7 hPa East 9.7 km/h 24.1 km/h 90 % 0.0 mm 28 W/m2
17:35 5.1 °C 3.6 °C 1009.7 hPa East 8.0 km/h 20.9 km/h 90 % 0.0 mm 18 W/m2
17:40 5.1 °C 3.6 °C 1009.7 hPa East 19.3 km/h 20.9 km/h 90 % 0.0 mm 16 W/m2
17:45 5.2 °C 3.7 °C 1009.7 hPa ESE 12.9 km/h 22.5 km/h 90 % 0.0 mm 14 W/m2
17:55 5.2 °C 3.7 °C 1009.7 hPa East 11.3 km/h 20.9 km/h 90 % 0.0 mm 9 W/m2
18:00 5.2 °C 3.7 °C 1009.7 hPa ENE 14.5 km/h 20.9 km/h 90 % 0.0 mm 7 W/m2
18:10 5.3 °C 3.8 °C 1009.7 hPa East 8.0 km/h 22.5 km/h 90 % 0.0 mm 0 W/m2
18:15 5.3 °C 3.8 °C 1009.4 hPa ENE 14.5 km/h 22.5 km/h 90 % 0.0 mm 0 W/m2
18:20 5.3 °C 3.8 °C 1009.4 hPa East 12.9 km/h 20.9 km/h 90 % 0.0 mm 0 W/m2
18:25 5.3 °C 3.8 °C 1009.7 hPa East 8.0 km/h 20.9 km/h 90 % 0.0 mm 0 W/m2
18:35 5.3 °C 3.8 °C 1009.7 hPa East 17.7 km/h 25.7 km/h 90 % 0.0 mm 0 W/m2
18:40 5.3 °C 3.8 °C 1009.7 hPa East 8.0 km/h 25.7 km/h 90 % 0.0 mm 0 W/m2
18:45 5.4 °C 3.9 °C 1009.7 hPa East 14.5 km/h 20.9 km/h 90 % 0.0 mm 0 W/m2
18:50 5.4 °C 3.9 °C 1009.7 hPa ESE 11.3 km/h 24.1 km/h 90 % 0.0 mm 0 W/m2
19:00 5.5 °C 4.0 °C 1009.4 hPa East 11.3 km/h 24.1 km/h 90 % 0.3 mm 0 W/m2
19:10 5.6 °C 4.0 °C 1009.4 hPa East 12.9 km/h 24.1 km/h 90 % 0.3 mm 0 W/m2
19:20 5.7 °C 4.2 °C 1009.4 hPa ESE 14.5 km/h 24.1 km/h 90 % 0.3 mm 0 W/m2
19:25 5.8 °C 4.3 °C 1009.4 hPa East 6.4 km/h 27.4 km/h 90 % 0.3 mm 0 W/m2
19:35 5.9 °C 4.4 °C 1009.4 hPa East 9.7 km/h 24.1 km/h 90 % 0.3 mm 0 W/m2
19:40 6.1 °C 4.5 °C 1009.4 hPa ESE 11.3 km/h 24.1 km/h 90 % 0.3 mm 0 W/m2
19:50 6.3 °C 4.6 °C 1009.4 hPa ESE 17.7 km/h 24.1 km/h 89 % 0.3 mm 0 W/m2
19:55 6.3 °C 4.7 °C 1009.4 hPa ESE 11.3 km/h 25.7 km/h 89 % 0.3 mm 0 W/m2
20:05 6.5 °C 4.8 °C 1009.0 hPa East 20.9 km/h 30.6 km/h 89 % 0.0 mm 0 W/m2
20:10 6.6 °C 4.9 °C 1009.0 hPa East 17.7 km/h 30.6 km/h 89 % 0.0 mm 0 W/m2
20:20 6.7 °C 5.0 °C 1008.7 hPa East 17.7 km/h 32.2 km/h 89 % 0.0 mm 0 W/m2
20:25 6.7 °C 5.2 °C 1008.7 hPa ESE 4.8 km/h 32.2 km/h 90 % 0.0 mm 0 W/m2
20:30 6.8 °C 5.3 °C 1008.7 hPa ESE 19.3 km/h 24.1 km/h 90 % 0.0 mm 0 W/m2
20:40 6.9 °C 5.3 °C 1008.7 hPa ENE 17.7 km/h 29.0 km/h 89 % 0.0 mm 0 W/m2
20:45 7.0 °C 5.3 °C 1008.7 hPa ESE 17.7 km/h 29.0 km/h 89 % 0.0 mm 0 W/m2
20:50 7.1 °C 5.4 °C 1008.7 hPa East 12.9 km/h 27.4 km/h 89 % 0.0 mm 0 W/m2
21:00 7.3 °C 5.6 °C 1008.7 hPa East 20.9 km/h 27.4 km/h 89 % 0.0 mm 0 W/m2
21:10 7.4 °C 5.7 °C 1008.7 hPa ESE 19.3 km/h 24.1 km/h 89 % 0.0 mm 0 W/m2
21:15 7.5 °C 5.6 °C 1008.7 hPa ESE 12.9 km/h 27.4 km/h 88 % 0.0 mm 0 W/m2
21:20 7.6 °C 5.9 °C 1008.7 hPa ESE 20.9 km/h 27.4 km/h 89 % 0.0 mm 0 W/m2
21:25 7.6 °C 5.9 °C 1008.7 hPa East 12.9 km/h 25.7 km/h 89 % 0.0 mm 0 W/m2
21:30 7.7 °C 5.8 °C 1008.7 hPa ESE 11.3 km/h 27.4 km/h 88 % 0.0 mm 0 W/m2
21:40 7.8 °C 6.0 °C 1008.7 hPa East 8.0 km/h 27.4 km/h 88 % 0.0 mm 0 W/m2
21:45 7.9 °C 6.0 °C 1008.7 hPa East 14.5 km/h 27.4 km/h 88 % 0.0 mm 0 W/m2
21:50 7.9 °C 6.1 °C 1008.7 hPa ESE 17.7 km/h 25.7 km/h 88 % 0.0 mm 0 W/m2
21:55 8.0 °C 6.0 °C 1008.7 hPa ENE 8.0 km/h 25.7 km/h 87 % 0.0 mm 0 W/m2
22:00 8.1 °C 6.2 °C 1008.7 hPa East 1.6 km/h 25.7 km/h 88 % 0.0 mm 0 W/m2
22:10 8.1 °C 6.1 °C 1008.7 hPa East 11.3 km/h 24.1 km/h 87 % 0.0 mm 0 W/m2
22:15 8.2 °C 6.3 °C 1008.7 hPa ESE 11.3 km/h 25.7 km/h 88 % 0.0 mm 0 W/m2
22:20 8.3 °C 6.2 °C 1008.7 hPa ESE 8.0 km/h 30.6 km/h 87 % 0.0 mm 0 W/m2
22:25 8.4 °C 6.3 °C 1008.7 hPa SE 11.3 km/h 30.6 km/h 87 % 0.0 mm 0 W/m2
22:30 8.5 °C 6.5 °C 1008.7 hPa ESE 24.1 km/h 27.4 km/h 87 % 0.0 mm 0 W/m2
22:40 8.6 °C 6.4 °C 1008.7 hPa ESE 16.1 km/h 29.0 km/h 86 % 0.0 mm 0 W/m2
22:45 8.7 °C 6.5 °C 1008.7 hPa East 11.3 km/h 29.0 km/h 86 % 0.0 mm 0 W/m2
22:50 8.7 °C 6.5 °C 1008.7 hPa ESE 11.3 km/h 27.4 km/h 86 % 0.0 mm 0 W/m2
23:00 8.8 °C 6.6 °C 1008.7 hPa ESE 12.9 km/h 27.4 km/h 86 % 0.0 mm 0 W/m2
23:10 8.9 °C 6.7 °C 1008.4 hPa ENE 17.7 km/h 32.2 km/h 86 % 0.0 mm 0 W/m2
23:15 8.9 °C 6.6 °C 1008.4 hPa ESE 16.1 km/h 33.8 km/h 85 % 0.0 mm 0 W/m2
23:20 8.9 °C 6.5 °C 1008.4 hPa East 20.9 km/h 33.8 km/h 85 % 0.0 mm 0 W/m2
23:25 8.8 °C 6.4 °C 1008.4 hPa SE 16.1 km/h 24.1 km/h 85 % 0.0 mm 0 W/m2
23:30 8.8 °C 6.4 °C 1008.4 hPa ESE 16.1 km/h 25.7 km/h 85 % 0.0 mm 0 W/m2
23:40 8.8 °C 6.4 °C 1008.0 hPa SE 9.7 km/h 33.8 km/h 85 % 0.0 mm 0 W/m2
23:45 8.9 °C 6.6 °C 1008.0 hPa East 16.1 km/h 33.8 km/h 85 % 0.0 mm 0 W/m2
23:50 8.9 °C 6.6 °C 1008.0 hPa ESE 4.8 km/h 25.7 km/h 85 % 0.0 mm 0 W/m2
23:55 8.9 °C 6.6 °C 1008.0 hPa ESE 14.5 km/h 35.4 km/h 85 % 0.0 mm 0 W/m2
Avec l'autorisation de Weather Underground - 1.5 mb